sensor_id;sensor_type;location;lat;lon;timestamp;pressure;altitude;pressure_sealevel;temperature;humidity
78409;BME280;67697;50.750;-3.270;2024-01-30T00:01:57;101467.94;;;7.48;100.00
78409;BME280;67697;50.750;-3.270;2024-01-30T00:04:23;101475.16;;;7.41;100.00
78409;BME280;67697;50.750;-3.270;2024-01-30T00:06:48;101475.65;;;7.14;100.00
78409;BME280;67697;50.750;-3.270;2024-01-30T00:09:14;101483.26;;;6.95;100.00
78409;BME280;67697;50.750;-3.270;2024-01-30T00:11:40;101487.31;;;6.93;100.00
78409;BME280;67697;50.750;-3.270;2024-01-30T00:14:06;101498.74;;;7.13;100.00
78409;BME280;67697;50.750;-3.270;2024-01-30T00:16:31;101501.10;;;6.76;100.00
78409;BME280;67697;50.750;-3.270;2024-01-30T00:18:57;101501.62;;;7.58;100.00
78409;BME280;67697;50.750;-3.270;2024-01-30T00:21:23;101502.96;;;7.06;100.00
78409;BME280;67697;50.750;-3.270;2024-01-30T00:23:49;101504.91;;;6.93;100.00
78409;BME280;67697;50.750;-3.270;2024-01-30T00:26:14;101513.00;;;6.80;100.00
78409;BME280;67697;50.750;-3.270;2024-01-30T00:28:40;101514.48;;;6.46;100.00
78409;BME280;67697;50.750;-3.270;2024-01-30T00:31:05;101520.54;;;6.91;100.00
78409;BME280;67697;50.750;-3.270;2024-01-30T00:33:31;101524.64;;;7.02;100.00
78409;BME280;67697;50.750;-3.270;2024-01-30T00:35:57;101535.18;;;6.53;100.00
78409;BME280;67697;50.750;-3.270;2024-01-30T00:38:24;101530.53;;;7.16;100.00
78409;BME280;67697;50.750;-3.270;2024-01-30T00:40:48;101533.67;;;7.77;100.00
78409;BME280;67697;50.750;-3.270;2024-01-30T00:43:14;101528.45;;;6.91;100.00
78409;BME280;67697;50.750;-3.270;2024-01-30T00:45:39;101533.01;;;6.58;100.00
78409;BME280;67697;50.750;-3.270;2024-01-30T00:48:06;101539.78;;;6.94;100.00
78409;BME280;67697;50.750;-3.270;2024-01-30T00:50:31;101548.21;;;7.40;100.00
78409;BME280;67697;50.750;-3.270;2024-01-30T00:52:56;101549.80;;;6.77;100.00
78409;BME280;67697;50.750;-3.270;2024-01-30T00:55:22;101556.36;;;6.64;100.00
78409;BME280;67697;50.750;-3.270;2024-01-30T00:57:48;101554.18;;;6.64;100.00
78409;BME280;67697;50.750;-3.270;2024-01-30T01:00:14;101556.78;;;6.49;100.00
78409;BME280;67697;50.750;-3.270;2024-01-30T01:02:39;101561.62;;;5.72;100.00
78409;BME280;67697;50.750;-3.270;2024-01-30T01:05:05;101562.29;;;6.32;100.00
78409;BME280;67697;50.750;-3.270;2024-01-30T01:07:31;101569.27;;;6.18;100.00
78409;BME280;67697;50.750;-3.270;2024-01-30T01:09:56;101563.09;;;5.61;100.00
78409;BME280;67697;50.750;-3.270;2024-01-30T01:12:22;101570.68;;;6.16;100.00
78409;BME280;67697;50.750;-3.270;2024-01-30T01:14:48;101572.01;;;6.23;100.00
78409;BME280;67697;50.750;-3.270;2024-01-30T01:17:13;101573.74;;;5.66;100.00
78409;BME280;67697;50.750;-3.270;2024-01-30T01:19:39;101585.15;;;6.50;100.00
78409;BME280;67697;50.750;-3.270;2024-01-30T01:22:05;101592.46;;;6.42;100.00
78409;BME280;67697;50.750;-3.270;2024-01-30T01:24:31;101588.74;;;6.44;100.00
78409;BME280;67697;50.750;-3.270;2024-01-30T01:26:57;101588.37;;;6.41;100.00
78409;BME280;67697;50.750;-3.270;2024-01-30T01:29:22;101594.77;;;6.19;100.00
78409;BME280;67697;50.750;-3.270;2024-01-30T01:31:47;101597.89;;;6.22;100.00
78409;BME280;67697;50.750;-3.270;2024-01-30T01:34:13;101606.15;;;6.56;100.00
78409;BME280;67697;50.750;-3.270;2024-01-30T01:36:39;101606.78;;;6.55;100.00
78409;BME280;67697;50.750;-3.270;2024-01-30T01:39:10;101608.01;;;7.23;100.00
78409;BME280;67697;50.750;-3.270;2024-01-30T01:41:31;101612.92;;;7.49;100.00
78409;BME280;67697;50.750;-3.270;2024-01-30T01:43:56;101618.30;;;7.55;100.00
78409;BME280;67697;50.750;-3.270;2024-01-30T01:46:22;101617.34;;;8.54;100.00
78409;BME280;67697;50.750;-3.270;2024-01-30T01:48:47;101620.46;;;8.80;100.00
78409;BME280;67697;50.750;-3.270;2024-01-30T01:51:13;101634.35;;;8.61;100.00
78409;BME280;67697;50.750;-3.270;2024-01-30T01:53:39;101636.55;;;8.19;100.00
78409;BME280;67697;50.750;-3.270;2024-01-30T01:56:06;101636.34;;;7.85;100.00
78409;BME280;67697;50.750;-3.270;2024-01-30T01:58:30;101643.51;;;8.30;100.00
78409;BME280;67697;50.750;-3.270;2024-01-30T02:00:57;101638.99;;;8.32;100.00
78409;BME280;67697;50.750;-3.270;2024-01-30T02:03:22;101648.88;;;7.37;100.00
78409;BME280;67697;50.750;-3.270;2024-01-30T02:05:47;101651.84;;;7.36;100.00
78409;BME280;67697;50.750;-3.270;2024-01-30T02:08:13;101656.18;;;7.35;100.00
78409;BME280;67697;50.750;-3.270;2024-01-30T02:10:39;101669.41;;;6.97;100.00
78409;BME280;67697;50.750;-3.270;2024-01-30T02:13:04;101672.62;;;6.39;100.00
78409;BME280;67697;50.750;-3.270;2024-01-30T02:15:30;101673.14;;;6.21;100.00
78409;BME280;67697;50.750;-3.270;2024-01-30T02:17:56;101680.01;;;6.29;100.00
78409;BME280;67697;50.750;-3.270;2024-01-30T02:20:22;101676.80;;;7.29;100.00
78409;BME280;67697;50.750;-3.270;2024-01-30T02:22:48;101681.56;;;7.79;100.00
78409;BME280;67697;50.750;-3.270;2024-01-30T02:25:13;101695.09;;;7.17;100.00
78409;BME280;67697;50.750;-3.270;2024-01-30T02:27:39;101695.15;;;7.10;100.00
78409;BME280;67697;50.750;-3.270;2024-01-30T02:30:05;101695.69;;;6.77;100.00
78409;BME280;67697;50.750;-3.270;2024-01-30T02:32:30;101698.63;;;6.99;100.00
78409;BME280;67697;50.750;-3.270;2024-01-30T02:34:55;101700.89;;;7.09;100.00
78409;BME280;67697;50.750;-3.270;2024-01-30T02:37:21;101700.70;;;7.11;100.00
78409;BME280;67697;50.750;-3.270;2024-01-30T02:39:47;101705.51;;;6.35;100.00
78409;BME280;67697;50.750;-3.270;2024-01-30T02:42:13;101701.87;;;6.43;100.00
78409;BME280;67697;50.750;-3.270;2024-01-30T02:44:39;101707.65;;;6.89;100.00
78409;BME280;67697;50.750;-3.270;2024-01-30T02:47:04;101708.67;;;7.59;100.00
78409;BME280;67697;50.750;-3.270;2024-01-30T02:49:30;101709.00;;;7.45;100.00
78409;BME280;67697;50.750;-3.270;2024-01-30T02:51:55;101710.69;;;7.95;100.00
78409;BME280;67697;50.750;-3.270;2024-01-30T02:54:21;101712.51;;;8.05;100.00
78409;BME280;67697;50.750;-3.270;2024-01-30T02:56:47;101723.42;;;7.10;100.00
78409;BME280;67697;50.750;-3.270;2024-01-30T02:59:13;101725.35;;;6.88;100.00
78409;BME280;67697;50.750;-3.270;2024-01-30T03:01:44;101732.41;;;6.67;100.00
78409;BME280;67697;50.750;-3.270;2024-01-30T03:04:04;101737.47;;;7.08;100.00
78409;BME280;67697;50.750;-3.270;2024-01-30T03:06:30;101741.34;;;6.70;100.00
78409;BME280;67697;50.750;-3.270;2024-01-30T03:08:55;101743.45;;;6.21;100.00
78409;BME280;67697;50.750;-3.270;2024-01-30T03:11:21;101746.03;;;6.75;100.00
78409;BME280;67697;50.750;-3.270;2024-01-30T03:13:47;101752.06;;;6.59;100.00
78409;BME280;67697;50.750;-3.270;2024-01-30T03:16:13;101750.43;;;6.22;100.00
78409;BME280;67697;50.750;-3.270;2024-01-30T03:18:39;101760.39;;;6.29;100.00
78409;BME280;67697;50.750;-3.270;2024-01-30T03:21:04;101759.01;;;6.28;100.00
78409;BME280;67697;50.750;-3.270;2024-01-30T03:23:30;101763.98;;;6.90;100.00
78409;BME280;67697;50.750;-3.270;2024-01-30T03:25:55;101768.59;;;6.44;100.00
78409;BME280;67697;50.750;-3.270;2024-01-30T03:28:21;101771.47;;;7.01;100.00
78409;BME280;67697;50.750;-3.270;2024-01-30T03:30:47;101777.10;;;7.61;100.00
78409;BME280;67697;50.750;-3.270;2024-01-30T03:33:13;101779.67;;;7.32;100.00
78409;BME280;67697;50.750;-3.270;2024-01-30T03:35:39;101773.15;;;7.07;100.00
78409;BME280;67697;50.750;-3.270;2024-01-30T03:38:04;101778.94;;;7.21;100.00
78409;BME280;67697;50.750;-3.270;2024-01-30T03:40:30;101781.34;;;7.16;100.00
78409;BME280;67697;50.750;-3.270;2024-01-30T03:42:55;101790.17;;;7.41;100.00
78409;BME280;67697;50.750;-3.270;2024-01-30T03:45:21;101792.29;;;7.44;100.00
78409;BME280;67697;50.750;-3.270;2024-01-30T03:47:47;101786.23;;;6.99;100.00
78409;BME280;67697;50.750;-3.270;2024-01-30T03:50:12;101785.25;;;6.65;100.00
78409;BME280;67697;50.750;-3.270;2024-01-30T03:52:39;101792.23;;;7.17;100.00
78409;BME280;67697;50.750;-3.270;2024-01-30T03:55:04;101795.08;;;6.66;100.00
78409;BME280;67697;50.750;-3.270;2024-01-30T03:57:29;101794.39;;;7.03;100.00
78409;BME280;67697;50.750;-3.270;2024-01-30T03:59:55;101793.49;;;7.51;100.00
78409;BME280;67697;50.750;-3.270;2024-01-30T04:02:20;101792.83;;;8.16;100.00
78409;BME280;67697;50.750;-3.270;2024-01-30T04:04:46;101800.91;;;7.13;100.00
78409;BME280;67697;50.750;-3.270;2024-01-30T04:07:12;101807.21;;;7.69;100.00
78409;BME280;67697;50.750;-3.270;2024-01-30T04:09:38;101807.20;;;6.71;100.00
78409;BME280;67697;50.750;-3.270;2024-01-30T04:12:04;101809.92;;;7.56;100.00
78409;BME280;67697;50.750;-3.270;2024-01-30T04:14:29;101807.34;;;7.35;100.00
78409;BME280;67697;50.750;-3.270;2024-01-30T04:16:54;101810.95;;;7.48;100.00
78409;BME280;67697;50.750;-3.270;2024-01-30T04:19:20;101810.58;;;7.73;100.00
78409;BME280;67697;50.750;-3.270;2024-01-30T04:21:46;101808.76;;;7.53;100.00
78409;BME280;67697;50.750;-3.270;2024-01-30T04:24:12;101814.04;;;6.48;100.00
78409;BME280;67697;50.750;-3.270;2024-01-30T04:26:38;101822.96;;;6.95;100.00
78409;BME280;67697;50.750;-3.270;2024-01-30T04:29:03;101829.50;;;6.97;100.00
78409;BME280;67697;50.750;-3.270;2024-01-30T04:31:29;101837.88;;;6.82;100.00
78409;BME280;67697;50.750;-3.270;2024-01-30T04:33:54;101841.66;;;6.93;100.00
78409;BME280;67697;50.750;-3.270;2024-01-30T04:36:20;101839.91;;;7.03;100.00
78409;BME280;67697;50.750;-3.270;2024-01-30T04:38:45;101848.08;;;7.44;100.00
78409;BME280;67697;50.750;-3.270;2024-01-30T04:41:11;101848.70;;;6.95;100.00
78409;BME280;67697;50.750;-3.270;2024-01-30T04:43:37;101851.93;;;7.34;100.00
78409;BME280;67697;50.750;-3.270;2024-01-30T04:46:03;101859.03;;;7.12;100.00
78409;BME280;67697;50.750;-3.270;2024-01-30T04:48:28;101864.25;;;7.56;100.00
78409;BME280;67697;50.750;-3.270;2024-01-30T04:50:53;101868.60;;;7.77;100.00
78409;BME280;67697;50.750;-3.270;2024-01-30T04:53:19;101871.49;;;7.01;100.00
78409;BME280;67697;50.750;-3.270;2024-01-30T04:55:44;101875.11;;;7.20;100.00
78409;BME280;67697;50.750;-3.270;2024-01-30T04:58:10;101873.19;;;7.22;100.00
78409;BME280;67697;50.750;-3.270;2024-01-30T05:00:36;101879.26;;;7.44;100.00
78409;BME280;67697;50.750;-3.270;2024-01-30T05:03:02;101879.32;;;7.27;100.00
78409;BME280;67697;50.750;-3.270;2024-01-30T05:05:27;101881.36;;;7.63;100.00
78409;BME280;67697;50.750;-3.270;2024-01-30T05:07:53;101879.61;;;7.60;100.00
78409;BME280;67697;50.750;-3.270;2024-01-30T05:10:18;101883.99;;;7.40;100.00
78409;BME280;67697;50.750;-3.270;2024-01-30T05:12:44;101889.57;;;6.86;100.00
78409;BME280;67697;50.750;-3.270;2024-01-30T05:15:10;101892.52;;;6.81;100.00
78409;BME280;67697;50.750;-3.270;2024-01-30T05:17:35;101900.77;;;6.83;100.00
78409;BME280;67697;50.750;-3.270;2024-01-30T05:20:01;101899.07;;;6.75;100.00
78409;BME280;67697;50.750;-3.270;2024-01-30T05:22:27;101902.53;;;6.68;100.00
78409;BME280;67697;50.750;-3.270;2024-01-30T05:24:53;101917.39;;;6.13;100.00
78409;BME280;67697;50.750;-3.270;2024-01-30T05:27:18;101924.48;;;6.35;100.00
78409;BME280;67697;50.750;-3.270;2024-01-30T05:29:44;101927.70;;;6.99;100.00
78409;BME280;67697;50.750;-3.270;2024-01-30T05:32:10;101931.40;;;6.94;100.00
78409;BME280;67697;50.750;-3.270;2024-01-30T05:34:36;101930.10;;;6.75;100.00
78409;BME280;67697;50.750;-3.270;2024-01-30T05:37:02;101939.03;;;6.29;100.00
78409;BME280;67697;50.750;-3.270;2024-01-30T05:39:27;101940.38;;;6.91;100.00
78409;BME280;67697;50.750;-3.270;2024-01-30T05:41:53;101940.14;;;6.48;100.00
78409;BME280;67697;50.750;-3.270;2024-01-30T05:44:18;101949.60;;;6.20;100.00
78409;BME280;67697;50.750;-3.270;2024-01-30T05:46:44;101957.52;;;6.40;100.00
78409;BME280;67697;50.750;-3.270;2024-01-30T05:49:10;101961.61;;;6.01;100.00
78409;BME280;67697;50.750;-3.270;2024-01-30T05:51:35;101963.19;;;6.49;100.00
78409;BME280;67697;50.750;-3.270;2024-01-30T05:54:01;101965.54;;;6.53;100.00
78409;BME280;67697;50.750;-3.270;2024-01-30T05:56:27;101966.39;;;6.88;100.00
78409;BME280;67697;50.750;-3.270;2024-01-30T05:58:53;101970.65;;;6.85;100.00
78409;BME280;67697;50.750;-3.270;2024-01-30T06:01:18;101972.87;;;6.95;100.00
78409;BME280;67697;50.750;-3.270;2024-01-30T06:03:44;101972.79;;;7.47;100.00
78409;BME280;67697;50.750;-3.270;2024-01-30T06:06:09;101975.58;;;7.40;100.00
78409;BME280;67697;50.750;-3.270;2024-01-30T06:08:35;101982.28;;;7.27;100.00
78409;BME280;67697;50.750;-3.270;2024-01-30T06:11:01;101983.18;;;6.88;100.00
78409;BME280;67697;50.750;-3.270;2024-01-30T06:13:27;101992.03;;;7.58;100.00
78409;BME280;67697;50.750;-3.270;2024-01-30T06:15:52;101994.75;;;6.70;100.00
78409;BME280;67697;50.750;-3.270;2024-01-30T06:18:18;101997.85;;;7.60;100.00
78409;BME280;67697;50.750;-3.270;2024-01-30T06:20:44;101998.58;;;7.04;100.00
78409;BME280;67697;50.750;-3.270;2024-01-30T06:23:09;102003.24;;;7.12;100.00
78409;BME280;67697;50.750;-3.270;2024-01-30T06:25:35;102008.35;;;6.69;100.00
78409;BME280;67697;50.750;-3.270;2024-01-30T06:28:00;102010.34;;;7.31;100.00
78409;BME280;67697;50.750;-3.270;2024-01-30T06:30:26;102011.15;;;7.87;100.00
78409;BME280;67697;50.750;-3.270;2024-01-30T06:32:51;102013.58;;;7.21;100.00
78409;BME280;67697;50.750;-3.270;2024-01-30T06:35:17;102013.56;;;7.10;100.00
78409;BME280;67697;50.750;-3.270;2024-01-30T06:37:43;102016.32;;;7.15;100.00
78409;BME280;67697;50.750;-3.270;2024-01-30T06:40:09;102025.12;;;6.51;100.00
78409;BME280;67697;50.750;-3.270;2024-01-30T06:42:33;102028.40;;;6.93;100.00
78409;BME280;67697;50.750;-3.270;2024-01-30T06:44:58;102031.91;;;7.32;100.00
78409;BME280;67697;50.750;-3.270;2024-01-30T06:47:23;102033.64;;;7.07;100.00
78409;BME280;67697;50.750;-3.270;2024-01-30T06:49:49;102036.06;;;7.18;100.00
78409;BME280;67697;50.750;-3.270;2024-01-30T06:52:15;102036.76;;;6.77;100.00
78409;BME280;67697;50.750;-3.270;2024-01-30T06:54:40;102038.52;;;6.32;100.00
78409;BME280;67697;50.750;-3.270;2024-01-30T06:57:06;102040.98;;;6.89;100.00
78409;BME280;67697;50.750;-3.270;2024-01-30T06:59:31;102040.14;;;7.41;100.00
78409;BME280;67697;50.750;-3.270;2024-01-30T07:01:57;102040.98;;;8.18;100.00
78409;BME280;67697;50.750;-3.270;2024-01-30T07:04:23;102047.83;;;7.45;100.00
78409;BME280;67697;50.750;-3.270;2024-01-30T07:06:48;102050.29;;;8.70;100.00
78409;BME280;67697;50.750;-3.270;2024-01-30T07:09:14;102050.39;;;7.89;100.00
78409;BME280;67697;50.750;-3.270;2024-01-30T07:11:40;102048.86;;;8.32;100.00
78409;BME280;67697;50.750;-3.270;2024-01-30T07:14:05;102052.65;;;8.78;100.00
78409;BME280;67697;50.750;-3.270;2024-01-30T07:16:31;102057.96;;;8.41;100.00
78409;BME280;67697;50.750;-3.270;2024-01-30T07:18:56;102061.41;;;9.03;100.00
78409;BME280;67697;50.750;-3.270;2024-01-30T07:21:22;102062.21;;;9.22;100.00
78409;BME280;67697;50.750;-3.270;2024-01-30T07:23:47;102065.52;;;8.98;100.00
78409;BME280;67697;50.750;-3.270;2024-01-30T07:26:14;102068.49;;;9.67;100.00
78409;BME280;67697;50.750;-3.270;2024-01-30T07:28:39;102080.07;;;9.83;100.00
78409;BME280;67697;50.750;-3.270;2024-01-30T07:31:05;102086.11;;;9.86;100.00
78409;BME280;67697;50.750;-3.270;2024-01-30T07:33:30;102090.15;;;9.52;100.00
78409;BME280;67697;50.750;-3.270;2024-01-30T07:35:56;102095.86;;;8.85;100.00
78409;BME280;67697;50.750;-3.270;2024-01-30T07:38:23;102096.72;;;8.50;100.00
78409;BME280;67697;50.750;-3.270;2024-01-30T07:40:47;102101.14;;;7.64;100.00
78409;BME280;67697;50.750;-3.270;2024-01-30T07:43:13;102108.53;;;7.02;100.00
78409;BME280;67697;50.750;-3.270;2024-01-30T07:45:39;102111.57;;;7.44;100.00
78409;BME280;67697;50.750;-3.270;2024-01-30T07:48:06;102115.75;;;7.43;100.00
78409;BME280;67697;50.750;-3.270;2024-01-30T07:50:30;102112.14;;;6.65;100.00
78409;BME280;67697;50.750;-3.270;2024-01-30T07:52:56;102111.37;;;7.65;100.00
78409;BME280;67697;50.750;-3.270;2024-01-30T07:55:22;102114.99;;;7.46;100.00
78409;BME280;67697;50.750;-3.270;2024-01-30T07:57:48;102111.73;;;8.26;100.00
78409;BME280;67697;50.750;-3.270;2024-01-30T08:00:14;102112.80;;;7.69;100.00
78409;BME280;67697;50.750;-3.270;2024-01-30T08:02:39;102120.07;;;8.05;100.00
78409;BME280;67697;50.750;-3.270;2024-01-30T08:05:05;102124.08;;;6.80;100.00
78409;BME280;67697;50.750;-3.270;2024-01-30T08:07:30;102126.80;;;7.28;100.00
78409;BME280;67697;50.750;-3.270;2024-01-30T08:09:56;102132.00;;;7.55;100.00
78409;BME280;67697;50.750;-3.270;2024-01-30T08:12:22;102137.65;;;6.45;100.00
78409;BME280;67697;50.750;-3.270;2024-01-30T08:14:47;102142.26;;;7.02;100.00
78409;BME280;67697;50.750;-3.270;2024-01-30T08:17:13;102144.53;;;7.32;100.00
78409;BME280;67697;50.750;-3.270;2024-01-30T08:19:39;102141.30;;;6.83;100.00
78409;BME280;67697;50.750;-3.270;2024-01-30T08:22:05;102152.38;;;7.60;100.00
78409;BME280;67697;50.750;-3.270;2024-01-30T08:24:31;102155.64;;;8.37;100.00
78409;BME280;67697;50.750;-3.270;2024-01-30T08:26:56;102165.04;;;7.80;100.00
78409;BME280;67697;50.750;-3.270;2024-01-30T08:29:22;102169.64;;;8.45;100.00
78409;BME280;67697;50.750;-3.270;2024-01-30T08:31:47;102178.48;;;7.64;100.00
78409;BME280;67697;50.750;-3.270;2024-01-30T08:34:13;102180.92;;;8.12;100.00
78409;BME280;67697;50.750;-3.270;2024-01-30T08:36:39;102181.46;;;8.96;100.00
78409;BME280;67697;50.750;-3.270;2024-01-30T08:39:05;102185.37;;;8.67;100.00
78409;BME280;67697;50.750;-3.270;2024-01-30T08:41:31;102191.16;;;8.34;100.00
78409;BME280;67697;50.750;-3.270;2024-01-30T08:43:56;102194.51;;;9.50;100.00
78409;BME280;67697;50.750;-3.270;2024-01-30T08:46:21;102202.60;;;10.08;99.50
78409;BME280;67697;50.750;-3.270;2024-01-30T08:48:47;102204.79;;;10.41;96.81
78409;BME280;67697;50.750;-3.270;2024-01-30T08:51:13;102208.94;;;9.79;94.60
78409;BME280;67697;50.750;-3.270;2024-01-30T08:53:39;102217.00;;;9.59;100.00
78409;BME280;67697;50.750;-3.270;2024-01-30T08:56:06;102224.59;;;9.92;96.18
78409;BME280;67697;50.750;-3.270;2024-01-30T08:58:30;102229.70;;;8.33;100.00
78409;BME280;67697;50.750;-3.270;2024-01-30T09:00:55;102232.34;;;8.24;100.00
78409;BME280;67697;50.750;-3.270;2024-01-30T09:03:21;102238.22;;;8.15;100.00
78409;BME280;67697;50.750;-3.270;2024-01-30T09:05:47;102238.88;;;8.15;100.00
78409;BME280;67697;50.750;-3.270;2024-01-30T09:08:12;102244.56;;;8.07;100.00
78409;BME280;67697;50.750;-3.270;2024-01-30T09:10:39;102249.77;;;8.25;100.00
78409;BME280;67697;50.750;-3.270;2024-01-30T09:13:04;102255.23;;;7.48;100.00
78409;BME280;67697;50.750;-3.270;2024-01-30T09:15:30;102261.02;;;7.16;100.00
78409;BME280;67697;50.750;-3.270;2024-01-30T09:17:56;102270.54;;;6.44;100.00
78409;BME280;67697;50.750;-3.270;2024-01-30T09:20:21;102274.88;;;7.09;100.00
78409;BME280;67697;50.750;-3.270;2024-01-30T09:22:47;102273.22;;;7.32;100.00
78409;BME280;67697;50.750;-3.270;2024-01-30T09:25:12;102276.48;;;7.44;100.00
78409;BME280;67697;50.750;-3.270;2024-01-30T09:27:39;102288.81;;;6.36;100.00
78409;BME280;67697;50.750;-3.270;2024-01-30T09:30:05;102291.79;;;6.35;100.00
78409;BME280;67697;50.750;-3.270;2024-01-30T09:32:30;102293.52;;;6.75;100.00
78409;BME280;67697;50.750;-3.270;2024-01-30T09:34:55;102292.01;;;7.26;100.00
78409;BME280;67697;50.750;-3.270;2024-01-30T09:37:21;102296.49;;;7.63;100.00
78409;BME280;67697;50.750;-3.270;2024-01-30T09:39:47;102300.36;;;6.68;100.00
78409;BME280;67697;50.750;-3.270;2024-01-30T09:42:26;102302.39;;;7.65;100.00
78409;BME280;67697;50.750;-3.270;2024-01-30T09:44:40;102310.96;;;6.89;100.00
78409;BME280;67697;50.750;-3.270;2024-01-30T09:47:04;102309.93;;;7.78;100.00
78409;BME280;67697;50.750;-3.270;2024-01-30T09:49:31;102310.45;;;7.33;100.00
78409;BME280;67697;50.750;-3.270;2024-01-30T09:51:56;102318.36;;;7.01;100.00
78409;BME280;67697;50.750;-3.270;2024-01-30T09:54:21;102320.10;;;7.68;100.00
78409;BME280;67697;50.750;-3.270;2024-01-30T09:56:48;102330.03;;;6.83;100.00
78409;BME280;67697;50.750;-3.270;2024-01-30T09:59:12;102334.68;;;6.52;100.00
78409;BME280;67697;50.750;-3.270;2024-01-30T10:01:39;102335.18;;;6.57;100.00
78409;BME280;67697;50.750;-3.270;2024-01-30T10:04:04;102340.26;;;6.60;100.00
78409;BME280;67697;50.750;-3.270;2024-01-30T10:06:29;102346.69;;;6.70;100.00
78409;BME280;67697;50.750;-3.270;2024-01-30T10:08:55;102343.58;;;7.25;100.00
78409;BME280;67697;50.750;-3.270;2024-01-30T10:11:21;102350.46;;;6.81;100.00
78409;BME280;67697;50.750;-3.270;2024-01-30T10:13:46;102351.36;;;7.88;100.00
78409;BME280;67697;50.750;-3.270;2024-01-30T10:16:14;102358.37;;;7.26;100.00
78409;BME280;67697;50.750;-3.270;2024-01-30T10:18:39;102368.04;;;5.79;100.00
78409;BME280;67697;50.750;-3.270;2024-01-30T10:21:04;102375.15;;;6.65;100.00
78409;BME280;67697;50.750;-3.270;2024-01-30T10:23:29;102376.83;;;6.28;100.00
78409;BME280;67697;50.750;-3.270;2024-01-30T10:25:56;102375.66;;;6.94;100.00
78409;BME280;67697;50.750;-3.270;2024-01-30T10:28:21;102377.77;;;6.95;100.00
78409;BME280;67697;50.750;-3.270;2024-01-30T10:30:46;102380.84;;;6.85;100.00
78409;BME280;67697;50.750;-3.270;2024-01-30T10:33:12;102382.80;;;6.87;100.00
78409;BME280;67697;50.750;-3.270;2024-01-30T10:35:38;102385.48;;;7.70;100.00
78409;BME280;67697;50.750;-3.270;2024-01-30T10:38:05;102388.31;;;7.35;100.00
78409;BME280;67697;50.750;-3.270;2024-01-30T10:40:29;102396.02;;;6.98;100.00
78409;BME280;67697;50.750;-3.270;2024-01-30T10:42:56;102401.89;;;7.17;100.00
78409;BME280;67697;50.750;-3.270;2024-01-30T10:45:22;102397.14;;;7.43;100.00
78409;BME280;67697;50.750;-3.270;2024-01-30T10:47:49;102405.37;;;6.59;100.00
78409;BME280;67697;50.750;-3.270;2024-01-30T10:50:12;102412.47;;;7.30;100.00
78409;BME280;67697;50.750;-3.270;2024-01-30T10:52:39;102419.99;;;7.13;100.00
78409;BME280;67697;50.750;-3.270;2024-01-30T10:55:05;102427.01;;;7.41;100.00
78409;BME280;67697;50.750;-3.270;2024-01-30T10:57:29;102421.30;;;7.57;100.00
78409;BME280;67697;50.750;-3.270;2024-01-30T10:59:57;102424.16;;;8.03;100.00
78409;BME280;67697;50.750;-3.270;2024-01-30T11:02:21;102428.92;;;7.46;100.00
78409;BME280;67697;50.750;-3.270;2024-01-30T11:04:46;102430.76;;;8.02;100.00
78409;BME280;67697;50.750;-3.270;2024-01-30T11:07:16;102431.66;;;8.21;100.00
78409;BME280;67697;50.750;-3.270;2024-01-30T11:09:38;102433.14;;;8.49;100.00
78409;BME280;67697;50.750;-3.270;2024-01-30T11:12:04;102442.59;;;7.69;100.00
78409;BME280;67697;50.750;-3.270;2024-01-30T11:14:30;102449.50;;;7.59;100.00
78409;BME280;67697;50.750;-3.270;2024-01-30T11:16:57;102442.04;;;8.96;100.00
78409;BME280;67697;50.750;-3.270;2024-01-30T11:19:23;102435.63;;;9.49;97.27
78409;BME280;67697;50.750;-3.270;2024-01-30T11:21:45;102434.89;;;9.18;100.00
78409;BME280;67697;50.750;-3.270;2024-01-30T11:24:14;102436.30;;;7.95;100.00
78409;BME280;67697;50.750;-3.270;2024-01-30T11:26:37;102441.17;;;7.01;100.00
78409;BME280;67697;50.750;-3.270;2024-01-30T11:29:03;102440.65;;;7.42;100.00
78409;BME280;67697;50.750;-3.270;2024-01-30T11:31:28;102436.79;;;7.29;100.00
78409;BME280;67697;50.750;-3.270;2024-01-30T11:33:55;102435.39;;;7.56;100.00
78409;BME280;67697;50.750;-3.270;2024-01-30T11:36:21;102438.30;;;6.87;100.00
78409;BME280;67697;50.750;-3.270;2024-01-30T11:38:45;102426.09;;;8.27;100.00
78409;BME280;67697;50.750;-3.270;2024-01-30T11:41:11;102424.42;;;7.76;100.00
78409;BME280;67697;50.750;-3.270;2024-01-30T11:43:36;102415.68;;;8.31;100.00
78409;BME280;67697;50.750;-3.270;2024-01-30T11:46:02;102412.45;;;7.75;100.00
78409;BME280;67697;50.750;-3.270;2024-01-30T11:48:28;102417.04;;;7.65;100.00
78409;BME280;67697;50.750;-3.270;2024-01-30T11:50:54;102423.41;;;6.50;100.00
78409;BME280;67697;50.750;-3.270;2024-01-30T11:53:19;102422.14;;;6.66;100.00
78409;BME280;67697;50.750;-3.270;2024-01-30T11:55:50;102420.36;;;7.62;100.00
78409;BME280;67697;50.750;-3.270;2024-01-30T11:58:10;102425.63;;;7.82;100.00
78409;BME280;67697;50.750;-3.270;2024-01-30T12:00:36;102428.38;;;8.71;100.00
78409;BME280;67697;50.750;-3.270;2024-01-30T12:03:02;102432.47;;;8.14;100.00
78409;BME280;67697;50.750;-3.270;2024-01-30T12:05:28;102432.49;;;8.58;100.00
78409;BME280;67697;50.750;-3.270;2024-01-30T12:07:53;102428.92;;;9.01;100.00
78409;BME280;67697;50.750;-3.270;2024-01-30T12:10:21;102426.55;;;8.47;100.00
78409;BME280;67697;50.750;-3.270;2024-01-30T12:12:46;102429.42;;;7.99;100.00
78409;BME280;67697;50.750;-3.270;2024-01-30T12:15:11;102430.97;;;7.94;100.00
78409;BME280;67697;50.750;-3.270;2024-01-30T12:17:36;102431.41;;;8.49;100.00
78409;BME280;67697;50.750;-3.270;2024-01-30T12:20:04;102437.45;;;8.40;100.00
78409;BME280;67697;50.750;-3.270;2024-01-30T12:22:27;102434.18;;;8.51;100.00
78409;BME280;67697;50.750;-3.270;2024-01-30T12:24:53;102440.36;;;8.25;100.00
78409;BME280;67697;50.750;-3.270;2024-01-30T12:27:19;102444.00;;;8.71;99.62
78409;BME280;67697;50.750;-3.270;2024-01-30T12:29:44;102443.79;;;8.32;95.19
78409;BME280;67697;50.750;-3.270;2024-01-30T12:32:15;102441.42;;;8.08;94.46